Time;durP1;ratioP1;P1;durP2;ratioP2;P2;SDS_P1;SDS_P2;PMS_P1;PMS_P2;Temp;Humidity;BMP_temperature;BMP_pressure;BME280_temperature;BME280_humidity;BME280_pressure;Samples;Min_cycle;Max_cycle;Signal;HPM_P1;HPM_P2
2021/05/20 00:01:13;;;;;;;9.37;5.43;;;7.90;99.90;;;;;;5228131;28;20216;-73
2021/05/20 00:03:46;;;;;;;11.77;6.23;;;7.90;99.90;;;;;;5228055;28;20209;-73
2021/05/20 00:06:17;;;;;;;8.50;5.67;;;7.90;99.90;;;;;;5228120;28;20228;-75
2021/05/20 00:08:49;;;;;;;9.73;5.40;;;7.80;99.90;;;;;;5226919;28;20220;-73
2021/05/20 00:11:21;;;;;;;8.80;5.40;;;7.80;99.90;;;;;;5228006;28;20208;-74
2021/05/20 00:13:53;;;;;;;9.07;5.50;;;7.80;99.90;;;;;;5228292;28;20567;-76
2021/05/20 00:16:25;;;;;;;7.13;5.53;;;7.80;99.90;;;;;;5228225;28;20571;-75
2021/05/20 00:18:57;;;;;;;6.57;4.83;;;7.80;99.90;;;;;;5227835;28;20206;-74
2021/05/20 00:21:29;;;;;;;8.20;5.80;;;7.80;99.90;;;;;;5227716;28;20279;-72
2021/05/20 00:24:02;;;;;;;10.83;5.47;;;7.70;99.90;;;;;;5228142;28;20197;-73
2021/05/20 00:26:34;;;;;;;10.17;5.97;;;7.70;99.90;;;;;;5227874;28;20236;-72
2021/05/20 00:29:06;;;;;;;10.37;5.40;;;7.60;99.90;;;;;;5228106;28;20213;-73
2021/05/20 00:31:38;;;;;;;9.47;5.87;;;7.60;99.90;;;;;;5227915;28;20204;-74
2021/05/20 00:34:10;;;;;;;9.70;5.90;;;7.60;99.90;;;;;;5227522;28;20209;-75
2021/05/20 00:36:41;;;;;;;8.37;5.73;;;7.70;99.90;;;;;;5227789;28;20205;-74
2021/05/20 00:39:13;;;;;;;10.10;5.67;;;7.70;99.90;;;;;;5227886;28;20208;-75
2021/05/20 00:41:45;;;;;;;8.33;5.67;;;7.60;99.90;;;;;;5227827;28;20202;-75
2021/05/20 00:44:17;;;;;;;8.97;5.77;;;7.60;99.90;;;;;;5227602;28;20229;-75
2021/05/20 00:46:49;;;;;;;7.50;5.63;;;7.60;99.90;;;;;;5227800;28;20224;-76
2021/05/20 00:49:21;;;;;;;9.90;5.70;;;7.50;99.90;;;;;;5227676;28;20212;-74
2021/05/20 00:51:53;;;;;;;7.97;6.23;;;7.50;99.90;;;;;;5227797;28;20221;-75
2021/05/20 00:54:25;;;;;;;9.47;6.00;;;7.50;99.90;;;;;;5228107;28;20644;-75
2021/05/20 00:56:56;;;;;;;8.70;6.00;;;7.50;99.90;;;;;;5227747;28;20205;-75
2021/05/20 00:59:28;;;;;;;8.50;5.73;;;7.50;99.90;;;;;;5227738;28;20205;-76
2021/05/20 01:02:00;;;;;;;8.90;5.93;;;7.40;99.90;;;;;;5227426;28;20197;-76
2021/05/20 01:04:35;;;;;;;7.60;6.20;;;7.40;99.90;;;;;;5227376;28;20243;-74
2021/05/20 01:07:06;;;;;;;7.67;5.80;;;7.40;99.90;;;;;;5230064;28;20236;-76
2021/05/20 01:09:39;;;;;;;9.93;6.10;;;7.40;99.90;;;;;;5234650;28;20201;-75
2021/05/20 01:12:11;;;;;;;9.13;6.23;;;7.40;99.90;;;;;;5233553;28;20550;-75
2021/05/20 01:14:44;;;;;;;9.23;6.20;;;7.40;99.90;;;;;;5232600;28;20613;-76
2021/05/20 01:17:16;;;;;;;11.73;6.70;;;7.40;99.90;;;;;;5232590;28;20623;-77
2021/05/20 01:19:48;;;;;;;9.43;6.30;;;7.40;99.90;;;;;;5232504;28;20679;-75
2021/05/20 01:22:20;;;;;;;10.00;6.57;;;7.40;99.90;;;;;;5231922;28;20559;-75
2021/05/20 01:24:53;;;;;;;11.53;6.67;;;7.40;99.90;;;;;;5230117;28;20686;-74
2021/05/20 01:27:26;;;;;;;9.03;6.13;;;7.40;99.90;;;;;;5231300;28;20229;-73
2021/05/20 01:29:58;;;;;;;10.00;6.30;;;7.30;99.90;;;;;;5231516;28;20558;-73
2021/05/20 01:32:29;;;;;;;11.10;6.57;;;7.30;99.90;;;;;;5231324;28;20664;-75
2021/05/20 01:35:02;;;;;;;9.00;6.23;;;7.30;99.90;;;;;;5231214;28;20565;-75
2021/05/20 01:37:34;;;;;;;9.87;6.97;;;7.30;99.90;;;;;;5229890;28;20549;-74
2021/05/20 01:40:06;;;;;;;9.20;6.57;;;7.30;99.90;;;;;;5230892;28;20198;-74
2021/05/20 01:42:38;;;;;;;9.40;6.90;;;7.30;99.90;;;;;;5231240;28;20208;-73
2021/05/20 01:45:10;;;;;;;10.40;7.37;;;7.30;99.90;;;;;;5230959;28;20711;-72
2021/05/20 01:47:42;;;;;;;9.03;6.77;;;7.20;99.90;;;;;;5231115;28;20232;-74
2021/05/20 01:50:14;;;;;;;11.03;7.07;;;7.20;99.90;;;;;;5230617;28;20214;-73
2021/05/20 01:52:46;;;;;;;10.10;6.87;;;7.20;99.90;;;;;;5230768;28;20213;-74
2021/05/20 01:55:18;;;;;;;10.03;7.03;;;7.20;99.90;;;;;;5230744;28;20224;-73
2021/05/20 01:57:50;;;;;;;10.13;7.40;;;7.20;99.90;;;;;;5230724;28;20547;-73
2021/05/20 02:00:22;;;;;;;10.13;7.30;;;7.10;99.90;;;;;;5230670;28;20198;-73
2021/05/20 02:02:53;;;;;;;10.87;7.50;;;7.20;99.90;;;;;;5230642;28;20213;-72
2021/05/20 02:05:26;;;;;;;10.43;7.33;;;7.20;99.90;;;;;;5230648;28;20206;-74
2021/05/20 02:07:57;;;;;;;11.10;7.17;;;7.10;99.90;;;;;;5230323;28;20229;-72
2021/05/20 02:10:30;;;;;;;12.63;7.60;;;7.10;99.90;;;;;;5230539;28;20197;-73
2021/05/20 02:13:02;;;;;;;10.53;7.50;;;7.10;99.90;;;;;;5230418;28;20209;-74
2021/05/20 02:15:34;;;;;;;12.83;7.53;;;7.20;99.90;;;;;;5230548;28;20205;-75
2021/05/20 02:18:06;;;;;;;12.33;7.87;;;7.10;99.90;;;;;;5230071;28;20213;-73
2021/05/20 02:20:39;;;;;;;11.97;8.20;;;7.10;99.90;;;;;;5230101;28;20206;-73
2021/05/20 02:23:11;;;;;;;12.77;7.73;;;7.20;99.90;;;;;;5230298;28;20209;-72
2021/05/20 02:25:44;;;;;;;12.53;8.27;;;7.20;99.90;;;;;;5230136;28;20201;-72
2021/05/20 02:28:16;;;;;;;11.80;7.60;;;7.20;99.90;;;;;;5230013;28;20244;-74
2021/05/20 02:30:47;;;;;;;11.40;7.63;;;7.20;99.90;;;;;;5229026;28;20277;-69
2021/05/20 02:33:19;;;;;;;11.80;9.00;;;7.20;99.90;;;;;;5230646;28;20589;-69
2021/05/20 02:35:51;;;;;;;10.77;8.10;;;7.20;99.90;;;;;;5229809;28;20206;-67
2021/05/20 02:38:23;;;;;;;14.03;8.37;;;7.20;99.90;;;;;;5228808;28;20292;-69
2021/05/20 02:40:55;;;;;;;12.50;8.57;;;7.20;99.90;;;;;;5229964;28;20201;-68
2021/05/20 02:43:27;;;;;;;11.80;8.23;;;7.20;99.90;;;;;;5229822;28;20205;-69
2021/05/20 02:46:01;;;;;;;15.07;8.37;;;7.20;99.90;;;;;;5232312;28;20661;-70
2021/05/20 02:48:32;;;;;;;13.13;8.93;;;7.20;99.90;;;;;;5232755;28;20225;-70
2021/05/20 02:51:05;;;;;;;12.67;8.80;;;7.20;99.90;;;;;;5232722;28;20206;-70
2021/05/20 02:53:36;;;;;;;16.27;9.20;;;7.30;99.90;;;;;;5231525;28;20206;-70
2021/05/20 02:56:08;;;;;;;13.40;9.57;;;7.30;99.90;;;;;;5232965;28;20201;-70
2021/05/20 02:58:40;;;;;;;14.13;9.47;;;7.30;99.90;;;;;;5232692;28;20225;-69
2021/05/20 03:01:12;;;;;;;18.67;9.17;;;7.30;99.90;;;;;;5231871;28;20220;-69
2021/05/20 03:03:44;;;;;;;15.90;9.13;;;7.40;99.90;;;;;;5230333;28;20212;-70
2021/05/20 03:06:16;;;;;;;13.00;9.37;;;7.40;99.90;;;;;;5229425;28;20201;-71
2021/05/20 03:08:49;;;;;;;14.37;10.13;;;7.40;99.90;;;;;;5229754;28;20236;-71
2021/05/20 03:11:21;;;;;;;15.67;9.90;;;7.40;99.90;;;;;;5229431;28;20201;-69
2021/05/20 03:13:52;;;;;;;12.53;9.43;;;7.40;99.90;;;;;;5229528;28;20205;-70
2021/05/20 03:16:24;;;;;;;14.57;9.77;;;7.50;99.90;;;;;;5229132;28;20204;-67
2021/05/20 03:18:56;;;;;;;13.63;9.70;;;7.50;99.90;;;;;;5229895;28;20560;-67
2021/05/20 03:21:28;;;;;;;17.67;10.17;;;7.50;99.90;;;;;;5229150;28;20209;-67
2021/05/20 03:24:00;;;;;;;14.00;10.10;;;7.60;99.90;;;;;;5229283;28;20258;-71
2021/05/20 03:26:32;;;;;;;13.47;9.37;;;7.60;99.90;;;;;;5227875;28;20206;-69
2021/05/20 03:29:05;;;;;;;13.93;9.83;;;7.70;99.90;;;;;;5228221;28;20237;-69
2021/05/20 03:31:37;;;;;;;14.13;9.77;;;7.60;99.90;;;;;;5229183;28;20217;-68
2021/05/20 03:34:09;;;;;;;17.37;10.13;;;7.70;99.90;;;;;;5229097;28;20208;-69
2021/05/20 03:36:40;;;;;;;16.77;9.90;;;7.70;99.90;;;;;;5228962;28;20208;-68
2021/05/20 03:39:13;;;;;;;15.87;9.73;;;7.80;99.90;;;;;;5228740;28;20557;-68
2021/05/20 03:41:45;;;;;;;17.13;10.13;;;7.80;99.90;;;;;;5228723;28;20565;-69
2021/05/20 03:44:17;;;;;;;17.00;9.90;;;7.80;99.90;;;;;;5229120;28;20212;-69
2021/05/20 03:46:49;;;;;;;14.67;9.47;;;7.90;99.90;;;;;;5228645;28;20205;-70
2021/05/20 03:49:21;;;;;;;15.83;9.73;;;8.00;99.90;;;;;;5228794;28;20205;-70
2021/05/20 03:51:53;;;;;;;15.00;9.80;;;8.00;99.90;;;;;;5228333;28;20201;-70
2021/05/20 03:54:25;;;;;;;15.83;10.03;;;8.10;99.90;;;;;;5230724;28;20197;-71
2021/05/20 03:56:57;;;;;;;14.13;9.80;;;8.10;99.90;;;;;;5230248;28;20213;-70
2021/05/20 03:59:29;;;;;;;19.57;10.33;;;8.10;99.90;;;;;;5230668;28;20209;-69
2021/05/20 04:02:01;;;;;;;14.53;9.77;;;8.20;99.90;;;;;;5228788;28;20209;-71
2021/05/20 04:04:34;;;;;;;15.13;10.00;;;8.30;99.90;;;;;;5230213;28;20209;-69
2021/05/20 04:07:06;;;;;;;15.83;9.83;;;8.30;99.90;;;;;;5228947;28;20208;-70
2021/05/20 04:09:38;;;;;;;13.73;9.77;;;8.40;99.90;;;;;;5227152;28;20323;-71
2021/05/20 04:12:10;;;;;;;17.47;9.07;;;8.40;99.90;;;;;;5228562;28;20201;-70
2021/05/20 04:14:42;;;;;;;12.23;8.83;;;8.50;99.90;;;;;;5227279;28;20209;-70
2021/05/20 04:17:14;;;;;;;17.20;10.00;;;8.60;99.90;;;;;;5228158;28;20206;-70
2021/05/20 04:19:46;;;;;;;12.03;8.40;;;8.70;99.90;;;;;;5228012;28;20201;-70
2021/05/20 04:22:17;;;;;;;14.90;8.67;;;8.70;99.90;;;;;;5228293;28;20216;-68
2021/05/20 04:24:49;;;;;;;14.57;11.53;;;8.80;99.90;;;;;;5228591;28;20556;-68
2021/05/20 04:27:21;;;;;;;14.27;9.37;;;8.90;99.90;;;;;;5227206;28;20256;-69
2021/05/20 04:29:54;;;;;;;17.77;9.90;;;9.00;99.90;;;;;;5228632;28;20209;-68
2021/05/20 04:32:26;;;;;;;11.97;8.90;;;9.00;99.90;;;;;;5228881;28;20210;-74
2021/05/20 04:34:57;;;;;;;13.53;8.90;;;9.10;99.90;;;;;;5228562;28;20209;-69
2021/05/20 04:37:29;;;;;;;11.57;8.53;;;9.20;99.90;;;;;;5227782;28;20213;-70
2021/05/20 04:40:02;;;;;;;13.90;8.77;;;9.20;99.90;;;;;;5228038;28;20206;-71
2021/05/20 04:42:34;;;;;;;14.60;7.93;;;9.30;99.90;;;;;;5227603;28;20205;-71
2021/05/20 04:45:06;;;;;;;13.40;8.13;;;9.30;99.90;;;;;;5227597;28;20228;-70
2021/05/20 04:47:38;;;;;;;10.93;8.10;;;9.40;99.90;;;;;;5228108;28;20301;-71
2021/05/20 04:50:11;;;;;;;13.10;8.30;;;9.50;99.90;;;;;;5228518;28;20201;-70
2021/05/20 04:52:45;;;;;;;14.07;8.63;;;9.50;99.90;;;;;;5227477;28;20549;-70
2021/05/20 04:55:17;;;;;;;12.33;7.87;;;9.60;99.90;;;;;;5227547;28;20205;-70
2021/05/20 04:57:49;;;;;;;14.37;8.17;;;9.70;99.90;;;;;;5226569;28;20213;-69
2021/05/20 05:00:21;;;;;;;9.30;7.33;;;9.70;99.90;;;;;;5227771;28;20562;-70
2021/05/20 05:02:54;;;;;;;10.80;7.50;;;9.80;99.90;;;;;;5227314;28;20202;-71
2021/05/20 05:05:26;;;;;;;10.83;7.53;;;9.90;99.90;;;;;;5227226;28;20301;-71
2021/05/20 05:07:58;;;;;;;13.23;7.70;;;10.00;99.90;;;;;;5227317;28;20229;-72
2021/05/20 05:10:30;;;;;;;11.43;7.33;;;10.00;99.90;;;;;;5228125;28;20197;-72
2021/05/20 05:13:02;;;;;;;9.93;7.70;;;10.10;99.90;;;;;;5227700;28;20213;-68
2021/05/20 05:15:34;;;;;;;14.40;7.90;;;10.20;99.90;;;;;;5227178;28;20197;-70
2021/05/20 05:18:06;;;;;;;9.77;7.20;;;10.30;99.90;;;;;;5227498;28;20210;-71
2021/05/20 05:20:38;;;;;;;11.10;7.30;;;10.30;99.90;;;;;;5227526;28;20284;-71
2021/05/20 05:23:10;;;;;;;8.93;6.10;;;10.40;99.90;;;;;;5227565;28;20209;-71
2021/05/20 05:25:48;;;;;;;8.90;7.07;;;10.50;99.90;;;;;;5227331;28;20664;-72
2021/05/20 05:28:20;;;;;;;11.60;6.60;;;10.50;99.90;;;;;;5227688;28;20220;-70
2021/05/20 05:30:52;;;;;;;9.33;6.60;;;10.60;99.90;;;;;;5226400;28;20220;-70
2021/05/20 05:33:24;;;;;;;11.37;6.43;;;10.70;99.90;;;;;;5228251;28;20202;-69
2021/05/20 05:35:56;;;;;;;11.43;6.23;;;10.70;99.90;;;;;;5228976;28;20562;-71
2021/05/20 05:38:28;;;;;;;9.30;5.63;;;10.80;99.90;;;;;;5228109;28;20209;-72
2021/05/20 05:41:00;;;;;;;11.87;6.70;;;10.90;99.90;;;;;;5226523;28;20202;-71
2021/05/20 05:43:32;;;;;;;10.13;6.67;;;11.00;99.90;;;;;;5227718;28;20216;-69
2021/05/20 05:46:04;;;;;;;7.33;6.40;;;11.10;99.90;;;;;;5226951;28;20232;-70
2021/05/20 05:48:36;;;;;;;9.27;6.17;;;11.20;99.90;;;;;;5227293;28;20236;-70
2021/05/20 05:51:12;;;;;;;10.93;7.00;;;11.30;99.90;;;;;;5225702;28;20210;-72
2021/05/20 05:53:44;;;;;;;9.27;6.33;;;11.40;99.90;;;;;;5229915;28;20208;-73
2021/05/20 05:56:16;;;;;;;12.57;6.13;;;11.60;99.90;;;;;;5230860;28;20202;-71
2021/05/20 05:58:48;;;;;;;12.53;5.93;;;12.60;99.90;;;;;;5230833;28;20213;-71
2021/05/20 06:01:20;;;;;;;8.60;5.27;;;14.80;99.90;;;;;;5230492;28;20277;-70
2021/05/20 06:03:52;;;;;;;8.10;4.37;;;16.80;99.90;;;;;;5230964;28;20307;-69
2021/05/20 06:06:24;;;;;;;6.80;4.72;;;18.40;99.90;;;;;;5230727;28;20201;-72
2021/05/20 06:08:56;;;;;;;6.18;3.78;;;19.50;99.90;;;;;;5236022;28;20324;-73
2021/05/20 06:11:28;;;;;;;6.57;3.83;;;20.90;99.90;;;;;;5237065;28;20235;-74
2021/05/20 06:14:07;;;;;;;5.95;4.10;;;21.90;97.90;;;;;;5231031;28;20288;-74
2021/05/20 06:16:41;;;;;;;7.03;3.60;;;22.20;95.50;;;;;;5230982;28;20201;-77
2021/05/20 06:19:13;;;;;;;5.70;3.33;;;22.30;94.40;;;;;;5231067;28;20215;-75
2021/05/20 06:21:44;;;;;;;6.70;3.80;;;22.80;92.80;;;;;;5231344;28;20570;-72
2021/05/20 06:24:16;;;;;;;5.15;3.10;;;23.10;91.40;;;;;;5230098;28;20245;-65
2021/05/20 06:26:48;;;;;;;5.25;3.17;;;22.40;90.60;;;;;;5229995;28;20206;-66
2021/05/20 06:29:20;;;;;;;4.70;3.17;;;22.40;90.70;;;;;;5230004;28;20221;-73
2021/05/20 06:31:52;;;;;;;4.53;3.40;;;22.60;88.70;;;;;;5230110;28;20217;-70
2021/05/20 06:34:24;;;;;;;3.70;2.85;;;22.90;88.30;;;;;;5230203;28;20213;-67
2021/05/20 06:37:02;;;;;;;4.53;2.67;;;23.50;86.80;;;;;;5229737;28;20209;-67
2021/05/20 06:39:33;;;;;;;6.10;3.10;;;23.00;85.00;;;;;;5222159;28;20205;-66
2021/05/20 06:42:10;;;;;;;4.45;2.50;;;23.10;84.80;;;;;;5226700;28;20217;-61
2021/05/20 06:44:43;;;;;;;6.13;2.60;;;23.50;84.80;;;;;;5226832;28;20707;-61
2021/05/20 06:47:15;;;;;;;3.67;2.85;;;24.00;82.00;;;;;;5225781;28;20205;-65
2021/05/20 06:49:46;;;;;;;4.70;2.70;;;24.20;80.00;;;;;;5225019;28;20256;-67
2021/05/20 06:52:18;;;;;;;3.08;2.22;;;23.90;81.30;;;;;;5225901;28;20201;-67
2021/05/20 06:54:50;;;;;;;3.78;2.30;;;23.80;79.50;;;;;;5225890;28;20553;-67
2021/05/20 06:57:29;;;;;;;2.70;2.50;;;24.10;81.00;;;;;;5241627;28;20198;-69
2021/05/20 07:00:02;;;;;;;3.33;2.40;;;24.10;80.40;;;;;;5226545;28;20223;-67
2021/05/20 07:02:34;;;;;;;3.45;2.65;;;24.00;79.50;;;;;;5227073;28;20698;-67
2021/05/20 07:05:07;;;;;;;2.80;2.45;;;24.50;78.60;;;;;;5227094;28;20213;-68
2021/05/20 07:07:39;;;;;;;4.18;2.50;;;24.60;78.20;;;;;;5225122;28;20566;-67
2021/05/20 07:10:12;;;;;;;4.50;2.78;;;24.60;77.10;;;;;;5226413;28;20694;-68
2021/05/20 07:12:44;;;;;;;5.03;2.75;;;24.40;76.70;;;;;;5225938;28;20577;-69
2021/05/20 07:15:16;;;;;;;6.10;2.83;;;24.00;77.20;;;;;;5226574;28;20186;-68
2021/05/20 07:17:48;;;;;;;3.83;2.70;;;23.30;77.50;;;;;;5226259;28;20215;-70
2021/05/20 07:20:20;;;;;;;4.25;2.80;;;22.30;79.40;;;;;;5226339;28;20202;-69
2021/05/20 07:22:52;;;;;;;6.03;3.20;;;21.30;81.80;;;;;;5226404;28;20283;-66
2021/05/20 07:25:23;;;;;;;4.60;3.13;;;20.90;85.60;;;;;;5226064;28;20209;-68
2021/05/20 07:27:55;;;;;;;5.97;2.80;;;20.70;85.70;;;;;;5226157;28;20209;-68
2021/05/20 07:30:27;;;;;;;4.90;2.80;;;20.40;86.10;;;;;;5226211;28;20653;-65
2021/05/20 07:32:59;;;;;;;8.55;3.22;;;20.20;87.50;;;;;;5226918;28;20213;-67
2021/05/20 07:35:32;;;;;;;5.15;3.10;;;19.70;88.30;;;;;;5224722;28;20232;-68
2021/05/20 07:38:04;;;;;;;5.15;3.08;;;19.30;89.40;;;;;;5222965;28;20201;-61
2021/05/20 07:40:36;;;;;;;5.13;2.70;;;18.70;90.10;;;;;;5224646;28;20208;-67
2021/05/20 07:43:08;;;;;;;5.30;2.85;;;18.00;91.60;;;;;;5225966;28;20207;-68
2021/05/20 07:45:40;;;;;;;6.07;2.90;;;17.80;92.80;;;;;;5225632;28;20233;-67
2021/05/20 07:48:12;;;;;;;3.47;2.08;;;17.30;92.00;;;;;;5212652;28;20589;-70
2021/05/20 07:50:44;;;;;;;5.60;2.58;;;17.10;93.50;;;;;;5218851;28;20202;-74
2021/05/20 07:53:16;;;;;;;4.63;2.40;;;17.10;94.30;;;;;;5224599;28;20201;-72
2021/05/20 07:55:48;;;;;;;6.30;3.25;;;17.20;93.40;;;;;;5222140;28;20649;-72
2021/05/20 07:58:20;;;;;;;9.35;2.10;;;16.70;95.10;;;;;;5214110;28;20205;-73
2021/05/20 08:00:54;;;;;;;3.63;2.40;;;16.90;95.30;;;;;;5219177;28;20217;-70
2021/05/20 08:06:14;;;;;;;4.97;2.20;;;17.50;94.40;;;;;;5212087;28;20215;-67
2021/05/20 08:11:31;;;;;;;14.73;2.78;;;17.40;95.70;;;;;;5225077;28;20235;-68
2021/05/20 08:14:03;;;;;;;13.15;2.60;;;17.60;94.70;;;;;;5222730;28;20231;-67
2021/05/20 08:16:35;;;;;;;6.97;2.00;;;17.80;92.80;;;;;;5224595;28;20194;-68
2021/05/20 08:19:08;;;;;;;3.72;1.50;;;17.70;92.20;;;;;;5224329;28;20574;-69
2021/05/20 08:21:40;;;;;;;6.78;1.60;;;17.80;92.10;;;;;;5224860;28;20193;-67
2021/05/20 08:24:12;;;;;;;10.05;1.92;;;18.00;92.20;;;;;;5224365;28;20209;-68
2021/05/20 08:26:44;;;;;;;3.55;1.70;;;17.90;92.20;;;;;;5224822;28;20202;-68
2021/05/20 08:29:16;;;;;;;2.30;1.27;;;18.00;91.00;;;;;;5223662;28;20217;-69
2021/05/20 08:31:48;;;;;;;3.10;1.08;;;17.90;90.80;;;;;;5224852;28;20345;-69
2021/05/20 08:34:20;;;;;;;2.97;1.13;;;18.20;91.20;;;;;;5224629;28;20671;-68
2021/05/20 08:36:52;;;;;;;2.80;1.30;;;18.20;90.60;;;;;;5223762;28;20198;-69
2021/05/20 08:39:24;;;;;;;6.40;1.60;;;17.80;90.30;;;;;;5223166;28;20220;-68
2021/05/20 08:41:56;;;;;;;8.80;3.90;;;17.60;91.80;;;;;;5224519;28;20213;-69
2021/05/20 08:44:30;;;;;;;4.18;2.78;;;17.50;91.80;;;;;;5224503;28;20225;-67
2021/05/20 08:47:11;;;;;;;6.57;1.98;;;17.10;90.80;;;;;;5224466;28;20194;-68
2021/05/20 08:49:47;;;;;;;5.22;1.70;;;17.00;90.80;;;;;;5224165;28;20221;-67
2021/05/20 08:52:19;;;;;;;4.03;2.03;;;16.80;91.50;;;;;;5224467;28;20197;-69
2021/05/20 08:54:52;;;;;;;2.50;1.60;;;16.70;92.40;;;;;;5224383;28;20189;-68
2021/05/20 08:57:25;;;;;;;4.35;1.25;;;16.90;92.70;;;;;;5222578;28;20205;-69
2021/05/20 08:59:57;;;;;;;2.90;1.42;;;17.10;91.90;;;;;;5223901;28;20209;-68
2021/05/20 09:02:31;;;;;;;3.42;1.00;;;17.10;92.30;;;;;;5225450;28;20201;-68
2021/05/20 09:05:08;;;;;;;4.15;1.40;;;17.40;91.60;;;;;;5224527;28;20647;-69
2021/05/20 09:07:42;;;;;;;4.50;1.10;;;17.80;91.30;;;;;;5224501;28;20201;-67
2021/05/20 09:10:29;;;;;;;2.90;1.40;;;18.00;90.90;;;;;;5223864;28;20216;-69
2021/05/20 09:13:12;;;;;;;4.32;1.38;;;18.00;90.40;;;;;;5222837;28;20727;-69
2021/05/20 09:15:49;;;;;;;5.00;1.58;;;17.80;89.60;;;;;;5222736;28;20210;-69
2021/05/20 09:18:29;;;;;;;6.30;1.13;;;17.10;89.90;;;;;;5224327;28;20647;-69
2021/05/20 09:21:06;;;;;;;3.58;1.00;;;17.00;90.40;;;;;;5224104;28;20198;-71
2021/05/20 09:23:49;;;;;;;2.88;1.08;;;17.30;91.40;;;;;;5223939;28;20209;-69
2021/05/20 09:26:34;;;;;;;7.32;0.93;;;17.40;90.60;;;;;;5223176;28;20570;-69
2021/05/20 09:29:10;;;;;;;3.13;1.38;;;17.50;88.80;;;;;;5228738;28;20221;-68
2021/05/20 09:31:47;;;;;;;3.30;1.48;;;17.40;90.10;;;;;;5228808;28;20228;-67
2021/05/20 09:34:20;;;;;;;4.28;1.20;;;17.30;90.30;;;;;;5228717;28;20209;-68
2021/05/20 09:36:52;;;;;;;3.60;1.20;;;17.20;88.70;;;;;;5228994;28;20556;-68
2021/05/20 09:39:24;;;;;;;2.25;1.13;;;17.10;88.80;;;;;;5228606;28;20213;-68
2021/05/20 09:42:14;;;;;;;2.20;0.95;;;17.10;89.70;;;;;;5226042;28;20201;-70
2021/05/20 09:44:46;;;;;;;3.97;1.00;;;17.00;89.50;;;;;;5228162;28;20244;-67
2021/05/20 09:47:19;;;;;;;4.05;1.02;;;17.00;90.10;;;;;;5243426;28;20198;-67
2021/05/20 09:50:00;;;;;;;6.30;0.90;;;16.90;90.80;;;;;;5227731;28;20576;-69
2021/05/20 09:52:33;;;;;;;4.00;1.00;;;17.00;91.00;;;;;;5223803;28;20284;-63
2021/05/20 09:55:26;;;;;;;4.65;1.38;;;17.10;91.20;;;;;;5222464;28;20320;-64
2021/05/20 09:58:08;;;;;;;2.40;1.10;;;17.20;91.60;;;;;;5225992;28;20204;-64
2021/05/20 10:00:40;;;;;;;2.97;1.20;;;17.40;91.60;;;;;;5227385;28;20202;-64
2021/05/20 10:03:15;;;;;;;2.67;1.05;;;17.50;91.30;;;;;;5228284;28;20201;-68
2021/05/20 10:05:52;;;;;;;2.75;1.52;;;17.70;90.70;;;;;;5229100;28;20224;-64
2021/05/20 10:08:26;;;;;;;1.75;1.17;;;17.50;90.90;;;;;;5228613;28;20335;-63
2021/05/20 10:11:03;;;;;;;4.03;0.85;;;17.70;91.80;;;;;;5229648;28;20213;-64
2021/05/20 10:13:35;;;;;;;5.43;0.75;;;17.70;87.20;;;;;;5227441;28;20189;-64
2021/05/20 10:16:07;;;;;;;1.50;0.55;;;17.50;85.20;;;;;;5227759;28;20259;-65
2021/05/20 10:18:39;;;;;;;1.73;0.60;;;17.50;83.80;;;;;;5227748;28;20553;-64
2021/05/20 10:21:12;;;;;;;1.95;0.68;;;17.30;84.10;;;;;;5227235;28;20233;-64
2021/05/20 10:23:44;;;;;;;2.53;0.60;;;17.30;85.10;;;;;;5225622;28;20212;-63
2021/05/20 10:26:16;;;;;;;4.18;1.00;;;17.40;87.20;;;;;;5227658;28;20205;-65
2021/05/20 10:28:48;;;;;;;4.07;0.80;;;17.50;86.70;;;;;;5227057;28;20225;-66
2021/05/20 10:31:21;;;;;;;1.65;0.55;;;17.70;86.90;;;;;;5224921;28;20213;-69
2021/05/20 10:33:53;;;;;;;3.65;1.00;;;17.80;84.50;;;;;;5194390;28;20208;-68
2021/05/20 10:36:26;;;;;;;1.92;0.90;;;17.70;85.40;;;;;;5222754;28;20637;-67
2021/05/20 10:39:19;;;;;;;2.80;0.90;;;17.40;87.70;;;;;;5226153;28;20208;-70
2021/05/20 10:41:51;;;;;;;1.92;0.77;;;17.20;88.50;;;;;;5226506;28;20228;-68
2021/05/20 10:44:25;;;;;;;2.72;1.13;;;17.50;90.30;;;;;;5225931;28;20239;-67
2021/05/20 10:46:57;;;;;;;3.15;1.00;;;17.60;89.60;;;;;;5226355;28;20205;-71
2021/05/20 10:49:51;;;;;;;2.85;1.45;;;17.50;90.40;;;;;;5226205;28;20225;-67
2021/05/20 10:52:35;;;;;;;2.33;0.90;;;16.90;90.20;;;;;;5225162;28;20202;-67
2021/05/20 10:55:14;;;;;;;3.30;1.30;;;16.70;91.20;;;;;;5225007;28;20292;-67
2021/05/20 10:57:46;;;;;;;3.25;1.15;;;16.50;91.10;;;;;;5224405;28;20429;-65
2021/05/20 11:00:40;;;;;;;5.67;1.40;;;16.40;92.10;;;;;;5225726;28;20213;-64
2021/05/20 11:03:12;;;;;;;3.63;0.93;;;16.30;92.10;;;;;;5226308;28;20206;-69
2021/05/20 11:05:45;;;;;;;1.63;0.80;;;16.40;91.60;;;;;;5226225;28;20197;-67
2021/05/20 11:08:26;;;;;;;4.32;0.80;;;16.60;91.20;;;;;;5187535;28;20213;-67
2021/05/20 11:11:01;;;;;;;1.60;0.70;;;16.70;89.60;;;;;;5222551;28;20227;-68
2021/05/20 11:13:38;;;;;;;3.55;0.85;;;16.80;90.20;;;;;;5226250;28;20284;-68
2021/05/20 11:16:19;;;;;;;4.28;1.20;;;16.90;90.70;;;;;;5224831;28;20741;-69
2021/05/20 11:18:52;;;;;;;2.40;1.03;;;17.00;90.70;;;;;;5226727;28;20201;-66
2021/05/20 11:21:25;;;;;;;3.77;1.17;;;17.30;91.00;;;;;;5224994;28;20418;-68
2021/05/20 11:24:15;;;;;;;2.58;0.98;;;17.40;90.70;;;;;;5225581;28;20867;-69
2021/05/20 11:26:55;;;;;;;1.08;0.70;;;17.40;87.90;;;;;;5225183;28;20198;-68
2021/05/20 11:29:29;;;;;;;1.88;0.55;;;17.20;84.30;;;;;;5223728;28;20679;-64
2021/05/20 11:32:29;;;;;;;0.93;0.52;;;16.70;84.40;;;;;;5225345;28;20202;-66
2021/05/20 11:37:48;;;;;;;1.90;0.68;;;16.50;87.30;;;;;;5225400;28;20204;-69
2021/05/20 11:40:32;;;;;;;1.30;0.65;;;16.70;89.10;;;;;;5224633;28;20201;-67
2021/05/20 11:43:04;;;;;;;3.72;0.70;;;16.70;88.10;;;;;;5223879;28;20216;-67
2021/05/20 11:45:36;;;;;;;1.70;0.90;;;16.70;89.20;;;;;;5225339;28;20233;-69
2021/05/20 11:48:08;;;;;;;1.45;0.65;;;16.90;90.20;;;;;;5226083;28;20197;-69
2021/05/20 11:50:50;;;;;;;2.00;0.90;;;17.10;86.70;;;;;;5222754;28;20455;-68
2021/05/20 11:53:22;;;;;;;2.38;0.50;;;17.10;84.90;;;;;;5225717;28;20234;-68
2021/05/20 11:55:54;;;;;;;2.97;0.75;;;17.30;85.10;;;;;;5225770;28;20206;-70
2021/05/20 11:58:26;;;;;;;3.88;0.75;;;17.40;87.90;;;;;;5240781;28;20570;-67
2021/05/20 12:01:01;;;;;;;1.58;1.10;;;17.30;88.50;;;;;;5224571;28;20220;-68
2021/05/20 12:03:33;;;;;;;4.30;1.58;;;17.00;90.10;;;;;;5224590;28;20197;-67
2021/05/20 12:06:10;;;;;;;3.53;1.00;;;16.60;91.30;;;;;;5224658;28;20208;-68
2021/05/20 12:08:41;;;;;;;2.37;0.90;;;16.40;91.10;;;;;;5224700;28;20255;-67
2021/05/20 12:11:26;;;;;;;2.07;0.83;;;16.40;91.40;;;;;;5224387;28;20317;-69
2021/05/20 12:13:58;;;;;;;2.43;1.07;;;16.60;91.20;;;;;;5221763;28;20204;-68
2021/05/20 12:16:35;;;;;;;2.17;0.90;;;16.70;90.60;;;;;;5217266;28;20613;-66
2021/05/20 12:19:07;;;;;;;2.13;1.30;;;16.80;90.70;;;;;;5223600;28;20204;-66
2021/05/20 12:21:38;;;;;;;4.47;1.10;;;17.10;91.40;;;;;;5223649;28;20205;-70
2021/05/20 12:24:10;;;;;;;1.45;0.82;;;17.30;91.10;;;;;;5239309;28;20213;-68
2021/05/20 12:26:42;;;;;;;1.60;1.10;;;17.40;90.10;;;;;;5224254;28;20221;-69
2021/05/20 12:29:14;;;;;;;4.30;1.10;;;17.30;89.80;;;;;;5224185;28;20198;-67
2021/05/20 12:31:47;;;;;;;2.85;0.93;;;17.20;89.20;;;;;;5221972;28;20201;-67
2021/05/20 12:34:22;;;;;;;1.52;1.10;;;17.00;88.40;;;;;;5221824;28;20289;-68
2021/05/20 12:37:05;;;;;;;1.40;0.82;;;16.90;90.20;;;;;;5224478;28;20553;-70
2021/05/20 12:39:46;;;;;;;2.30;1.20;;;16.80;91.20;;;;;;5223673;28;20205;-67
2021/05/20 12:42:18;;;;;;;5.05;1.20;;;17.00;91.50;;;;;;5222780;28;20698;-69
2021/05/20 12:45:00;;;;;;;2.75;1.15;;;17.20;91.00;;;;;;5224582;28;20330;-68
2021/05/20 12:47:48;;;;;;;1.52;0.90;;;17.40;90.40;;;;;;5225006;28;20205;-70
2021/05/20 12:50:46;;;;;;;1.30;1.02;;;17.50;90.50;;;;;;5227877;28;20243;-67
2021/05/20 12:53:41;;;;;;;2.95;0.90;;;17.80;89.80;;;;;;5223853;28;20224;-63
2021/05/20 12:56:27;;;;;;;1.70;0.80;;;18.00;89.10;;;;;;5208474;28;20209;-66
2021/05/20 12:59:02;;;;;;;3.05;1.33;;;18.20;88.30;;;;;;5223981;28;20287;-68
2021/05/20 13:01:35;;;;;;;4.97;0.75;;;18.40;89.30;;;;;;5215098;28;20204;-60
2021/05/20 13:04:19;;;;;;;1.17;0.93;;;18.60;87.00;;;;;;5224774;28;20197;-58
2021/05/20 13:07:01;;;;;;;3.70;1.10;;;18.70;87.50;;;;;;5185801;28;20201;-57
2021/05/20 13:09:41;;;;;;;2.65;0.77;;;18.40;86.20;;;;;;5212456;28;20232;-68
2021/05/20 13:12:25;;;;;;;1.70;0.82;;;17.80;83.80;;;;;;5227237;28;20205;-68
2021/05/20 13:22:11;;;;;;;3.72;1.00;;;16.90;88.30;;;;;;5222999;28;20201;-68
2021/05/20 13:23:22;;;;;;;1.50;0.77;;;17.00;89.00;;;;;;5228290;28;20254;-67
2021/05/20 13:26:05;;;;;;;2.25;1.15;;;17.30;89.70;;;;;;5206141;28;20197;-68
2021/05/20 13:28:37;;;;;;;2.03;0.60;;;17.50;86.60;;;;;;5227176;28;20205;-68
2021/05/20 13:31:10;;;;;;;3.25;0.75;;;17.60;82.30;;;;;;5227272;28;20229;-67
2021/05/20 13:33:44;;;;;;;1.85;0.90;;;17.60;85.50;;;;;;5227843;28;20190;-67
2021/05/20 13:36:16;;;;;;;2.15;1.20;;;17.60;86.30;;;;;;5228289;28;20578;-67